Time;durP1;ratioP1;P1;durP2;ratioP2;P2;SDS_P1;SDS_P2;PMS_P1;PMS_P2;Temp;Humidity;BMP_temperature;BMP_pressure;BME280_temperature;BME280_humidity;BME280_pressure;Samples;Min_cycle;Max_cycle;Signal;HPM_P1;HPM_P2
2023/07/11 00:00:58;;;;;;;3.55;2.72;;;21.90;95.00;;;;;;5053034;28;20688;-59
2023/07/11 00:03:25;;;;;;;4.85;3.53;;;21.90;95.10;;;;;;5053518;28;20210;-59
2023/07/11 00:05:59;;;;;;;5.80;4.85;;;21.80;95.50;;;;;;5052723;28;20217;-59
2023/07/11 00:08:26;;;;;;;5.63;3.17;;;21.60;95.90;;;;;;5053384;28;20209;-59
2023/07/11 00:10:54;;;;;;;3.60;3.05;;;21.60;96.00;;;;;;5052862;28;20225;-59
2023/07/11 00:13:21;;;;;;;3.72;3.20;;;21.60;96.40;;;;;;5052980;28;20587;-59
2023/07/11 00:15:56;;;;;;;6.30;3.03;;;21.50;97.00;;;;;;5052672;28;20235;-59
2023/07/11 00:18:23;;;;;;;3.83;3.15;;;21.50;97.00;;;;;;5052858;28;20205;-59
2023/07/11 00:20:49;;;;;;;3.88;3.00;;;21.50;97.30;;;;;;5052666;28;20267;-59
2023/07/11 00:23:16;;;;;;;5.25;3.42;;;21.60;97.40;;;;;;5052534;28;20264;-59
2023/07/11 00:25:43;;;;;;;3.30;3.00;;;21.60;97.50;;;;;;5052560;28;20206;-59
2023/07/11 00:28:11;;;;;;;4.65;3.35;;;21.50;97.40;;;;;;5052700;28;20201;-59
2023/07/11 00:30:41;;;;;;;4.47;3.25;;;21.50;97.70;;;;;;5052420;28;20225;-58
2023/07/11 00:33:08;;;;;;;3.47;3.03;;;21.40;97.80;;;;;;5052611;28;20226;-58
2023/07/11 00:35:35;;;;;;;4.05;3.22;;;21.40;98.00;;;;;;5052335;28;20576;-58
2023/07/11 00:38:02;;;;;;;6.03;2.72;;;21.30;98.00;;;;;;5052415;28;20424;-59
2023/07/11 00:40:28;;;;;;;3.78;3.13;;;21.30;98.20;;;;;;5052308;28;20205;-60
2023/07/11 00:42:55;;;;;;;3.42;2.88;;;21.30;98.40;;;;;;5052314;28;20628;-59
2023/07/11 00:46:04;;;;;;;5.43;2.92;;;21.30;98.40;;;;;;5052348;28;20673;-59
2023/07/11 00:48:35;;;;;;;5.57;3.25;;;21.30;98.50;;;;;;5052357;28;20210;-59
2023/07/11 00:51:03;;;;;;;3.40;2.88;;;21.20;98.80;;;;;;5052244;28;20230;-58
2023/07/11 00:53:31;;;;;;;3.88;3.20;;;21.10;99.20;;;;;;5052231;28;20291;-59
2023/07/11 00:56:04;;;;;;;5.82;3.53;;;21.00;99.70;;;;;;5051838;28;20227;-59
2023/07/11 00:58:32;;;;;;;6.15;2.90;;;21.00;99.90;;;;;;5052386;28;20205;-59
2023/07/11 01:01:00;;;;;;;4.30;3.17;;;21.00;99.90;;;;;;5052205;28;20202;-59
2023/07/11 01:03:28;;;;;;;3.53;3.10;;;21.00;99.90;;;;;;5052007;28;20209;-59
2023/07/11 01:05:56;;;;;;;4.97;3.08;;;21.00;99.90;;;;;;5051711;28;20349;-59
2023/07/11 01:08:23;;;;;;;4.20;2.80;;;21.00;99.90;;;;;;5052242;28;20309;-59
2023/07/11 01:10:49;;;;;;;3.90;3.05;;;20.90;99.90;;;;;;5051702;28;20621;-59
2023/07/11 01:13:16;;;;;;;4.55;2.90;;;20.90;99.90;;;;;;5051906;28;20226;-59
2023/07/11 01:15:43;;;;;;;3.75;2.70;;;20.90;99.90;;;;;;5051686;28;20271;-59
2023/07/11 01:18:10;;;;;;;4.50;3.05;;;20.80;99.90;;;;;;5051575;28;20205;-58
2023/07/11 01:20:38;;;;;;;3.85;2.85;;;20.80;99.90;;;;;;5051724;28;20210;-58
2023/07/11 01:23:06;;;;;;;4.63;2.95;;;20.70;99.90;;;;;;5095117;22;20358;-60
2023/07/11 01:25:34;;;;;;;4.10;2.90;;;20.60;99.90;;;;;;5092113;28;20208;-60
2023/07/11 01:28:01;;;;;;;6.50;3.03;;;20.50;99.90;;;;;;5092000;28;20299;-60
2023/07/11 01:30:27;;;;;;;6.72;2.92;;;20.50;99.90;;;;;;5092505;28;20293;-61
2023/07/11 01:32:54;;;;;;;5.95;3.42;;;20.50;99.90;;;;;;5092327;28;20278;-60
2023/07/11 01:35:21;;;;;;;7.05;3.20;;;20.60;99.90;;;;;;5092135;28;20242;-61
2023/07/11 01:37:48;;;;;;;3.45;3.03;;;20.60;99.90;;;;;;5091959;28;20211;-60
2023/07/11 01:40:16;;;;;;;5.68;3.28;;;20.60;99.90;;;;;;5092336;28;20295;-60
2023/07/11 01:42:44;;;;;;;7.40;3.30;;;20.50;99.90;;;;;;5091873;28;20293;-60
2023/07/11 01:45:11;;;;;;;3.85;3.35;;;20.50;99.90;;;;;;5092001;28;20212;-60
2023/07/11 01:47:38;;;;;;;8.43;3.38;;;20.50;99.90;;;;;;5091573;28;20204;-60
2023/07/11 01:50:06;;;;;;;3.80;3.10;;;20.50;99.90;;;;;;5091736;28;20263;-60
2023/07/11 01:52:32;;;;;;;3.72;2.95;;;20.50;99.90;;;;;;5091913;28;20224;-59
2023/07/11 01:54:59;;;;;;;6.35;3.25;;;20.50;99.90;;;;;;5091303;28;20253;-60
2023/07/11 01:57:27;;;;;;;3.70;3.08;;;20.50;99.90;;;;;;5091569;28;20208;-59
2023/07/11 01:59:54;;;;;;;4.38;3.15;;;20.40;99.90;;;;;;5091611;28;20201;-59
2023/07/11 02:02:21;;;;;;;4.15;3.08;;;20.30;99.90;;;;;;5091446;28;20611;-59
2023/07/11 02:04:48;;;;;;;4.93;3.38;;;20.40;99.90;;;;;;5091644;28;20208;-60
2023/07/11 02:07:15;;;;;;;4.80;3.40;;;20.30;99.90;;;;;;5091729;28;20212;-60
2023/07/11 02:09:42;;;;;;;6.13;3.70;;;20.30;99.90;;;;;;5091582;28;20310;-60
2023/07/11 02:12:10;;;;;;;3.97;3.28;;;20.30;99.90;;;;;;5091590;28;20227;-59
2023/07/11 02:14:40;;;;;;;6.05;3.30;;;20.30;99.90;;;;;;5091550;28;20204;-60
2023/07/11 02:17:07;;;;;;;6.63;3.40;;;20.40;99.90;;;;;;5091153;28;20295;-59
2023/07/11 02:19:34;;;;;;;4.25;3.05;;;20.40;99.90;;;;;;5091188;28;20208;-59
2023/07/11 02:22:01;;;;;;;5.43;3.38;;;20.30;99.90;;;;;;5091344;28;20319;-61
2023/07/11 02:24:27;;;;;;;3.53;3.22;;;20.30;99.90;;;;;;5091563;28;20235;-61
2023/07/11 02:26:54;;;;;;;4.53;3.17;;;20.30;99.90;;;;;;5091685;28;20211;-59
2023/07/11 02:29:21;;;;;;;4.45;3.42;;;20.20;99.90;;;;;;5091324;28;20206;-59
2023/07/11 02:31:49;;;;;;;3.17;2.83;;;20.10;99.90;;;;;;5091169;28;20289;-60
2023/07/11 02:34:16;;;;;;;4.28;3.05;;;20.00;99.90;;;;;;5091434;28;20212;-59
2023/07/11 02:36:42;;;;;;;3.80;3.33;;;20.00;99.90;;;;;;5090847;28;20668;-59
2023/07/11 02:39:09;;;;;;;5.60;3.40;;;20.00;99.90;;;;;;5091389;28;20204;-59
2023/07/11 02:41:36;;;;;;;5.03;3.30;;;20.00;99.90;;;;;;5091095;28;20224;-60
2023/07/11 02:44:03;;;;;;;4.50;3.17;;;20.00;99.90;;;;;;5091100;28;20215;-58
2023/07/11 02:46:30;;;;;;;4.93;3.30;;;20.00;99.90;;;;;;5090827;28;20208;-59
2023/07/11 02:48:58;;;;;;;4.63;3.42;;;20.00;99.90;;;;;;5091460;28;20632;-59
2023/07/11 02:51:24;;;;;;;7.65;3.55;;;20.00;99.90;;;;;;5091136;28;20224;-60
2023/07/11 02:53:51;;;;;;;3.88;3.20;;;20.00;99.90;;;;;;5091110;28;20212;-60
2023/07/11 02:56:20;;;;;;;4.55;3.20;;;20.00;99.90;;;;;;5090839;28;20636;-60
2023/07/11 02:58:46;;;;;;;4.45;3.40;;;19.90;99.90;;;;;;5091173;28;20200;-60
2023/07/11 03:01:14;;;;;;;7.00;3.85;;;19.90;99.90;;;;;;5090844;28;20209;-58
2023/07/11 03:03:41;;;;;;;3.53;3.10;;;20.00;99.90;;;;;;5091156;28;20204;-60
2023/07/11 03:06:09;;;;;;;4.57;3.38;;;19.90;99.90;;;;;;5090909;28;20672;-59
2023/07/11 03:08:35;;;;;;;5.30;3.60;;;19.90;99.90;;;;;;5094766;28;20345;-59
2023/07/11 03:11:02;;;;;;;7.43;3.20;;;19.80;99.90;;;;;;5094648;28;20228;-59
2023/07/11 03:13:29;;;;;;;5.13;3.20;;;19.80;99.90;;;;;;5094428;28;20216;-60
2023/07/11 03:16:00;;;;;;;5.90;3.83;;;19.80;99.90;;;;;;5094396;28;20291;-58
2023/07/11 03:18:27;;;;;;;5.15;3.50;;;19.80;99.90;;;;;;5094880;28;20269;-60
2023/07/11 03:20:58;;;;;;;4.53;3.53;;;19.80;99.90;;;;;;5095065;28;20200;-60
2023/07/11 03:23:26;;;;;;;7.13;3.85;;;19.80;99.90;;;;;;5094868;28;20236;-60
2023/07/11 03:25:53;;;;;;;5.80;3.60;;;19.80;99.90;;;;;;5094438;28;20204;-60
2023/07/11 03:28:20;;;;;;;5.32;3.80;;;19.80;99.90;;;;;;5094891;28;20208;-60
2023/07/11 03:30:47;;;;;;;4.82;3.53;;;19.80;99.90;;;;;;5094712;28;20282;-60
2023/07/11 03:33:15;;;;;;;5.18;3.42;;;19.80;99.90;;;;;;5094557;28;20220;-59
2023/07/11 03:35:41;;;;;;;5.30;3.53;;;19.80;99.90;;;;;;5094333;28;20200;-60
2023/07/11 03:38:08;;;;;;;5.13;3.80;;;19.80;99.90;;;;;;5094446;28;20200;-59
2023/07/11 03:40:36;;;;;;;4.20;3.65;;;19.80;99.90;;;;;;5094117;28;20203;-60
2023/07/11 03:43:03;;;;;;;6.00;3.50;;;19.90;99.90;;;;;;5094290;28;20282;-60
2023/07/11 03:45:29;;;;;;;3.60;3.28;;;19.80;99.90;;;;;;5094313;28;20257;-59
2023/07/11 03:47:56;;;;;;;3.67;3.28;;;19.80;99.90;;;;;;5094235;28;20208;-60
2023/07/11 03:50:23;;;;;;;3.65;3.35;;;19.80;99.90;;;;;;5093969;28;20228;-60
2023/07/11 03:52:49;;;;;;;3.72;3.33;;;19.80;99.90;;;;;;5094075;28;20224;-61
2023/07/11 03:55:16;;;;;;;9.05;3.80;;;19.80;99.90;;;;;;5093921;28;20310;-61
2023/07/11 03:57:45;;;;;;;4.80;3.88;;;19.80;99.90;;;;;;5093903;28;20254;-60
2023/07/11 04:00:12;;;;;;;4.75;3.40;;;19.90;99.90;;;;;;5093984;28;20656;-60
2023/07/11 04:02:39;;;;;;;4.97;3.45;;;19.90;99.90;;;;;;5093879;28;20231;-60
2023/07/11 04:05:06;;;;;;;10.18;3.78;;;20.00;99.90;;;;;;5093844;28;20208;-60
2023/07/11 04:07:33;;;;;;;4.45;4.00;;;20.00;99.90;;;;;;5093553;28;20261;-60
2023/07/11 04:09:59;;;;;;;3.72;3.40;;;20.10;99.90;;;;;;5094098;28;20234;-60
2023/07/11 04:12:26;;;;;;;4.10;3.70;;;20.00;99.90;;;;;;5093850;28;20235;-61
2023/07/11 04:14:54;;;;;;;4.40;3.95;;;20.10;99.90;;;;;;5093869;28;20200;-61
2023/07/11 04:17:21;;;;;;;4.90;3.80;;;20.30;99.90;;;;;;5093498;28;20204;-59
2023/07/11 04:19:48;;;;;;;4.05;3.33;;;20.30;99.90;;;;;;5092909;28;20211;-59
2023/07/11 04:22:14;;;;;;;6.35;3.80;;;20.40;99.90;;;;;;5093505;28;20228;-60
2023/07/11 04:24:41;;;;;;;4.10;3.50;;;20.40;99.90;;;;;;5093554;28;20212;-59
2023/07/11 04:27:08;;;;;;;5.25;3.40;;;20.40;99.90;;;;;;5093374;28;20574;-60
2023/07/11 04:29:35;;;;;;;5.38;3.50;;;20.40;99.90;;;;;;5093854;28;20208;-58
2023/07/11 04:32:03;;;;;;;4.20;3.80;;;20.50;99.90;;;;;;5093390;28;20228;-58
2023/07/11 04:34:30;;;;;;;6.63;3.65;;;20.60;99.90;;;;;;5093689;28;20261;-58
2023/07/11 04:36:56;;;;;;;4.28;3.88;;;20.60;99.90;;;;;;5093709;28;20207;-57
2023/07/11 04:39:23;;;;;;;4.32;3.33;;;20.70;99.90;;;;;;5093700;28;20741;-58
2023/07/11 04:41:49;;;;;;;5.90;3.63;;;20.90;99.90;;;;;;5093230;28;20277;-57
2023/07/11 04:44:17;;;;;;;6.25;3.78;;;21.00;99.90;;;;;;5093163;28;20213;-57
2023/07/11 04:46:43;;;;;;;5.10;3.78;;;21.10;99.90;;;;;;5093202;28;20329;-57
2023/07/11 04:49:11;;;;;;;6.85;3.88;;;21.20;99.90;;;;;;5093631;28;20200;-57
2023/07/11 04:51:38;;;;;;;6.20;4.50;;;21.40;99.90;;;;;;5093069;28;20239;-59
2023/07/11 04:54:05;;;;;;;4.63;3.80;;;21.50;99.90;;;;;;5093076;28;20211;-57
2023/07/11 04:56:31;;;;;;;6.60;4.47;;;21.60;99.90;;;;;;5092410;28;20620;-58
2023/07/11 04:59:00;;;;;;;7.10;4.35;;;21.70;99.90;;;;;;5092621;28;20215;-58
2023/07/11 05:01:26;;;;;;;8.75;5.38;;;22.00;99.90;;;;;;5092651;28;20253;-58
2023/07/11 05:03:53;;;;;;;8.60;5.70;;;22.20;99.90;;;;;;5092378;28;20211;-58
2023/07/11 05:06:21;;;;;;;7.65;5.05;;;22.50;99.90;;;;;;5092308;28;20667;-58
2023/07/11 05:08:48;;;;;;;7.00;4.85;;;22.90;99.90;;;;;;5092580;28;20755;-58
2023/07/11 05:11:17;;;;;;;6.18;4.47;;;23.50;99.90;;;;;;5092427;28;20220;-58
2023/07/11 05:13:45;;;;;;;6.18;4.32;;;23.90;99.90;;;;;;5092371;28;20299;-58
2023/07/11 05:16:14;;;;;;;7.10;5.13;;;24.10;99.90;;;;;;5092101;28;20208;-58
2023/07/11 05:18:41;;;;;;;6.55;4.72;;;24.70;99.90;;;;;;5092160;28;20208;-58
2023/07/11 05:21:09;;;;;;;6.25;4.50;;;25.60;98.80;;;;;;5092505;28;20200;-58
2023/07/11 05:23:38;;;;;;;7.45;4.65;;;26.70;96.70;;;;;;5092255;28;20269;-58
2023/07/11 05:26:05;;;;;;;8.40;4.30;;;27.80;93.10;;;;;;5092077;28;20659;-58
2023/07/11 05:28:33;;;;;;;6.93;4.45;;;28.80;90.70;;;;;;5092255;28;20230;-58
2023/07/11 05:31:02;;;;;;;5.88;4.45;;;29.60;85.50;;;;;;5091015;28;20232;-58
2023/07/11 05:33:30;;;;;;;9.13;4.25;;;30.20;82.40;;;;;;5092334;28;20319;-59
2023/07/11 05:36:05;;;;;;;7.28;4.60;;;30.70;78.20;;;;;;5091798;28;20620;-58
2023/07/11 05:38:32;;;;;;;9.65;4.68;;;30.80;76.90;;;;;;5092239;28;20306;-58
2023/07/11 05:41:00;;;;;;;5.63;4.15;;;30.90;75.30;;;;;;5092163;28;20208;-58
2023/07/11 05:43:27;;;;;;;4.95;3.80;;;30.80;75.40;;;;;;5091859;28;20645;-58
2023/07/11 05:45:54;;;;;;;4.40;3.80;;;31.10;73.80;;;;;;5091794;28;20204;-58
2023/07/11 05:48:20;;;;;;;6.38;3.65;;;31.60;72.40;;;;;;5092133;28;20265;-59
2023/07/11 05:50:57;;;;;;;4.85;3.25;;;32.20;70.80;;;;;;5091758;28;20219;-57
2023/07/11 05:53:24;;;;;;;5.70;3.28;;;32.80;68.40;;;;;;5091774;28;20231;-57
2023/07/11 05:55:51;;;;;;;4.20;3.50;;;33.60;65.60;;;;;;5091230;28;20740;-58
2023/07/11 05:58:19;;;;;;;5.25;3.25;;;34.20;63.70;;;;;;5091714;28;20200;-58
2023/07/11 06:00:46;;;;;;;5.90;3.25;;;34.80;62.10;;;;;;5091960;28;20257;-58
2023/07/11 06:03:13;;;;;;;4.78;3.70;;;35.20;59.80;;;;;;5091605;28;20289;-58
2023/07/11 06:05:39;;;;;;;4.43;3.28;;;35.70;58.50;;;;;;5092025;28;20204;-57
2023/07/11 06:08:06;;;;;;;3.30;3.00;;;36.20;56.90;;;;;;5091493;28;20357;-58
2023/07/11 06:10:34;;;;;;;4.93;3.38;;;36.70;55.80;;;;;;5091451;28;20204;-59
2023/07/11 06:13:01;;;;;;;7.45;3.90;;;37.20;54.00;;;;;;5091475;28;20709;-59
2023/07/11 06:15:29;;;;;;;4.70;3.53;;;37.60;53.10;;;;;;5091545;28;20208;-59
2023/07/11 06:17:56;;;;;;;5.45;3.70;;;37.90;52.40;;;;;;5091230;28;20216;-58
2023/07/11 06:20:23;;;;;;;5.20;3.70;;;38.20;51.40;;;;;;5091534;28;20242;-58
2023/07/11 06:22:50;;;;;;;5.35;3.30;;;38.60;50.20;;;;;;5091396;28;20224;-57
2023/07/11 06:25:17;;;;;;;9.02;3.90;;;38.90;50.20;;;;;;5091341;28;20226;-58
2023/07/11 06:27:45;;;;;;;7.25;3.67;;;39.00;50.40;;;;;;5091575;28;20204;-57
2023/07/11 06:30:12;;;;;;;4.90;3.45;;;39.20;49.30;;;;;;5091545;28;20213;-58
2023/07/11 06:32:40;;;;;;;5.00;3.70;;;39.30;49.10;;;;;;5091032;28;20238;-60
2023/07/11 06:35:08;;;;;;;8.55;3.17;;;39.60;48.50;;;;;;5091067;28;20584;-57
2023/07/11 06:37:35;;;;;;;4.68;3.38;;;40.00;47.90;;;;;;5090757;28;20352;-58
2023/07/11 06:40:08;;;;;;;10.45;3.33;;;40.30;46.90;;;;;;5091075;28;20208;-60
2023/07/11 06:42:34;;;;;;;7.82;3.10;;;40.40;45.70;;;;;;5093668;28;20319;-61
2023/07/11 06:45:01;;;;;;;3.55;3.03;;;40.20;45.70;;;;;;5095059;28;20204;-56
2023/07/11 06:47:28;;;;;;;8.45;3.25;;;40.10;45.60;;;;;;5094880;28;20200;-56
2023/07/11 06:49:56;;;;;;;4.25;2.90;;;40.10;45.70;;;;;;5095985;28;20205;-56
2023/07/11 06:52:22;;;;;;;3.90;2.90;;;40.50;45.30;;;;;;5095114;28;20223;-56
2023/07/11 06:54:49;;;;;;;5.47;2.97;;;40.90;44.60;;;;;;5095118;28;20212;-57
2023/07/11 06:57:18;;;;;;;9.82;3.40;;;41.20;44.40;;;;;;5094532;28;20208;-57
2023/07/11 06:59:45;;;;;;;4.57;2.78;;;41.70;43.90;;;;;;5095252;28;20211;-57
2023/07/11 07:02:11;;;;;;;5.38;3.30;;;42.10;42.90;;;;;;5094667;28;20597;-58
2023/07/11 07:04:38;;;;;;;9.35;3.28;;;42.10;43.10;;;;;;5094990;28;20200;-58
2023/07/11 07:07:06;;;;;;;6.97;3.10;;;42.20;42.20;;;;;;5094710;28;20292;-57
2023/07/11 07:09:33;;;;;;;6.95;3.47;;;42.30;42.00;;;;;;5094764;28;20671;-58
2023/07/11 07:11:59;;;;;;;5.28;3.25;;;42.60;42.10;;;;;;5094722;28;20242;-57
2023/07/11 07:14:26;;;;;;;4.93;3.10;;;42.70;41.30;;;;;;5094709;28;20199;-57
2023/07/11 07:16:53;;;;;;;3.47;2.83;;;42.70;40.80;;;;;;5094694;28;20207;-57
2023/07/11 07:19:19;;;;;;;5.60;2.95;;;43.00;40.60;;;;;;5094595;28;20588;-56
2023/07/11 07:21:46;;;;;;;5.32;3.03;;;43.10;40.10;;;;;;5095386;28;20246;-55
2023/07/11 07:24:14;;;;;;;3.63;2.67;;;43.20;40.60;;;;;;5094614;28;20295;-55
2023/07/11 07:26:42;;;;;;;7.82;3.10;;;43.70;39.90;;;;;;5094675;28;20200;-55
2023/07/11 07:29:09;;;;;;;4.30;3.10;;;44.40;39.30;;;;;;5094358;28;20662;-56
2023/07/11 07:31:36;;;;;;;3.20;2.67;;;44.90;38.90;;;;;;5094745;28;20227;-54
2023/07/11 07:34:02;;;;;;;3.60;3.08;;;45.20;38.60;;;;;;5094818;28;20211;-56
2023/07/11 07:36:29;;;;;;;5.68;2.78;;;45.60;37.70;;;;;;5094251;28;20626;-54
2023/07/11 07:38:56;;;;;;;6.35;3.03;;;45.90;37.10;;;;;;5094750;28;20204;-52
2023/07/11 07:41:25;;;;;;;5.55;3.10;;;46.10;36.90;;;;;;5094402;28;20199;-53
2023/07/11 07:43:52;;;;;;;5.28;2.80;;;45.90;37.30;;;;;;5094382;28;20411;-53
2023/07/11 07:46:19;;;;;;;4.88;2.90;;;45.80;37.20;;;;;;5093792;28;20211;-53
2023/07/11 07:48:46;;;;;;;3.95;2.90;;;45.90;37.10;;;;;;5094236;28;20283;-53
2023/07/11 07:51:15;;;;;;;4.25;2.75;;;45.90;36.60;;;;;;5094192;28;20256;-52
2023/07/11 07:53:41;;;;;;;5.20;3.20;;;45.80;36.60;;;;;;5093099;28;20592;-52
2023/07/11 07:56:10;;;;;;;4.25;2.90;;;45.80;36.40;;;;;;5094062;28;20280;-53
2023/07/11 07:58:39;;;;;;;4.05;2.80;;;45.30;37.10;;;;;;5094067;28;20212;-53
2023/07/11 08:01:06;;;;;;;3.70;2.85;;;45.00;37.40;;;;;;5093940;28;20199;-52
2023/07/11 08:03:33;;;;;;;4.15;2.90;;;45.10;37.40;;;;;;5093991;28;20266;-51
2023/07/11 08:06:00;;;;;;;6.55;3.10;;;45.00;37.40;;;;;;5094326;28;20212;-53
2023/07/11 08:08:27;;;;;;;3.53;2.90;;;44.90;37.50;;;;;;5093572;28;20899;-55
2023/07/11 08:10:53;;;;;;;4.47;3.10;;;44.40;37.80;;;;;;5093790;28;20299;-53
2023/07/11 08:13:20;;;;;;;4.22;3.08;;;44.30;38.00;;;;;;5090449;28;20456;-56
2023/07/11 08:15:48;;;;;;;3.03;2.45;;;43.90;38.40;;;;;;5093371;28;20211;-57
2023/07/11 08:18:15;;;;;;;5.10;2.80;;;43.20;39.00;;;;;;5093492;28;20208;-56
2023/07/11 08:20:42;;;;;;;6.32;3.45;;;43.40;39.20;;;;;;5093214;28;20204;-52
2023/07/11 08:23:08;;;;;;;3.55;2.85;;;44.20;38.20;;;;;;5093197;28;20273;-55
2023/07/11 08:25:36;;;;;;;4.75;3.10;;;44.80;37.20;;;;;;5093709;28;20238;-55
2023/07/11 08:28:04;;;;;;;4.85;3.38;;;45.00;37.40;;;;;;5093047;28;20230;-52
2023/07/11 08:30:31;;;;;;;3.53;3.17;;;45.00;37.40;;;;;;5092711;28;20207;-52
2023/07/11 08:32:59;;;;;;;3.20;2.72;;;45.20;37.10;;;;;;5092922;28;20239;-55
2023/07/11 08:35:25;;;;;;;7.78;3.10;;;44.80;37.90;;;;;;5092881;28;20211;-54
2023/07/11 08:37:52;;;;;;;4.18;2.95;;;44.10;38.20;;;;;;5092764;28;20215;-51
2023/07/11 08:40:22;;;;;;;6.03;3.65;;;44.00;38.10;;;;;;5092745;28;20288;-52
2023/07/11 08:42:49;;;;;;;6.50;3.30;;;44.40;38.00;;;;;;5093273;28;20228;-54
2023/07/11 08:45:22;;;;;;;6.45;2.70;;;44.70;37.50;;;;;;5092517;28;20211;-53
2023/07/11 08:47:56;;;;;;;5.45;3.83;;;45.00;37.40;;;;;;5092741;28;20203;-54
2023/07/11 08:50:28;;;;;;;5.32;3.17;;;45.30;37.00;;;;;;5093156;28;20206;-54
2023/07/11 08:53:07;;;;;;;4.75;3.20;;;45.20;37.50;;;;;;5093118;28;20220;-53
2023/07/11 08:55:36;;;;;;;6.35;3.67;;;44.60;38.20;;;;;;5092967;28;20264;-52
2023/07/11 08:58:09;;;;;;;4.70;3.50;;;43.50;39.10;;;;;;5092488;28;20268;-54
2023/07/11 09:00:36;;;;;;;5.05;4.25;;;42.20;40.90;;;;;;5092408;28;20564;-54
2023/07/11 09:03:10;;;;;;;3.67;3.30;;;40.60;42.50;;;;;;5092666;28;20216;-54
2023/07/11 09:05:43;;;;;;;4.88;3.70;;;39.30;44.40;;;;;;5092395;28;20207;-55
2023/07/11 09:08:13;;;;;;;5.13;3.70;;;38.40;46.10;;;;;;5092425;28;20215;-53
2023/07/11 09:10:48;;;;;;;4.55;3.53;;;37.50;47.60;;;;;;5094810;28;20212;-60
2023/07/11 09:13:50;;;;;;;4.57;4.13;;;36.80;48.90;;;;;;5092137;28;20223;-61
2023/07/11 09:16:31;;;;;;;5.35;3.72;;;36.30;50.50;;;;;;5091477;28;20208;-60
2023/07/11 09:19:07;;;;;;;4.03;3.63;;;35.90;51.20;;;;;;5092995;28;20205;-61
2023/07/11 09:21:41;;;;;;;7.25;4.20;;;35.60;52.80;;;;;;5092325;28;20650;-60
2023/07/11 09:24:17;;;;;;;4.75;4.00;;;35.30;53.60;;;;;;5092700;28;20223;-62
2023/07/11 09:26:48;;;;;;;5.28;4.03;;;34.90;55.40;;;;;;5092828;28;20208;-60
2023/07/11 09:29:17;;;;;;;5.00;4.00;;;34.70;56.30;;;;;;5092758;28;20243;-65
2023/07/11 09:31:50;;;;;;;5.88;3.88;;;34.60;56.40;;;;;;5092218;28;20227;-60
2023/07/11 09:34:23;;;;;;;7.78;3.90;;;34.60;56.10;;;;;;5092423;28;20299;-63
2023/07/11 09:36:52;;;;;;;5.07;3.90;;;34.50;56.30;;;;;;5091912;28;20265;-59
2023/07/11 09:39:29;;;;;;;5.32;4.18;;;34.40;57.80;;;;;;5092657;28;20295;-59
2023/07/11 09:42:01;;;;;;;11.15;4.82;;;34.20;57.60;;;;;;5092085;28;20772;-58
2023/07/11 09:44:28;;;;;;;11.32;3.95;;;34.20;60.00;;;;;;5092883;28;20204;-57
2023/07/11 09:46:54;;;;;;;6.72;4.47;;;34.20;59.20;;;;;;5092651;28;20207;-57
2023/07/11 09:49:28;;;;;;;5.80;4.10;;;34.40;59.20;;;;;;5092775;28;20230;-56
2023/07/11 09:51:59;;;;;;;4.88;3.80;;;34.50;59.30;;;;;;5092170;28;20232;-56
2023/07/11 09:54:29;;;;;;;5.93;4.20;;;34.70;58.60;;;;;;5092639;28;20245;-59
2023/07/11 09:56:56;;;;;;;7.90;3.90;;;34.80;57.60;;;;;;5092622;28;20204;-56
2023/07/11 09:59:23;;;;;;;20.65;6.45;;;35.00;55.90;;;;;;5092311;28;20239;-57
2023/07/11 10:01:53;;;;;;;5.07;4.07;;;35.30;55.30;;;;;;5092256;28;20247;-58
2023/07/11 10:04:23;;;;;;;5.93;4.00;;;35.50;55.00;;;;;;5092464;28;20235;-57
2023/07/11 10:06:56;;;;;;;4.72;3.75;;;35.80;55.20;;;;;;5092471;28;20212;-58
2023/07/11 10:09:26;;;;;;;5.10;3.95;;;36.00;53.70;;;;;;5092217;28;20249;-56
2023/07/11 10:11:55;;;;;;;6.18;4.75;;;36.20;53.90;;;;;;5092245;28;20290;-57
2023/07/11 10:14:27;;;;;;;6.85;4.22;;;36.50;54.70;;;;;;5092102;28;20235;-56
2023/07/11 10:16:56;;;;;;;5.60;4.18;;;36.70;54.20;;;;;;5091950;28;20212;-57
2023/07/11 10:19:22;;;;;;;6.85;4.47;;;36.80;54.90;;;;;;5091945;28;20204;-58
2023/07/11 10:21:51;;;;;;;5.40;4.22;;;36.70;55.00;;;;;;5091808;28;20232;-58
2023/07/11 10:24:19;;;;;;;4.97;3.78;;;36.40;55.70;;;;;;5091491;28;20257;-56
2023/07/11 10:26:52;;;;;;;7.43;3.90;;;36.30;55.60;;;;;;5091052;28;20204;-57
2023/07/11 10:29:24;;;;;;;5.28;4.00;;;36.40;55.70;;;;;;5091643;28;20275;-57
2023/07/11 10:31:55;;;;;;;6.55;3.97;;;36.40;54.00;;;;;;5091471;28;20315;-57
2023/07/11 10:34:27;;;;;;;7.72;4.35;;;36.40;53.80;;;;;;5091457;28;20610;-58
2023/07/11 10:37:01;;;;;;;9.13;4.30;;;36.40;53.50;;;;;;5091260;28;20208;-58
2023/07/11 10:39:35;;;;;;;6.40;4.32;;;36.40;53.40;;;;;;5091497;28;20205;-57
2023/07/11 10:42:07;;;;;;;4.88;3.85;;;36.30;53.90;;;;;;5091464;28;20238;-57
2023/07/11 10:44:40;;;;;;;5.75;4.32;;;36.20;53.80;;;;;;5091832;28;20208;-57
2023/07/11 10:47:09;;;;;;;6.38;4.28;;;36.20;53.30;;;;;;5091546;28;20208;-57
2023/07/11 10:49:40;;;;;;;7.63;4.05;;;36.30;54.00;;;;;;5091185;28;20211;-57
2023/07/11 10:52:16;;;;;;;4.97;4.18;;;36.30;53.10;;;;;;5091460;28;20228;-58
2023/07/11 10:54:47;;;;;;;5.57;4.32;;;36.40;53.10;;;;;;5091712;28;20294;-58
2023/07/11 10:57:26;;;;;;;5.72;4.60;;;36.40;53.40;;;;;;5091143;28;20204;-57
2023/07/11 10:59:54;;;;;;;5.28;4.00;;;36.40;53.20;;;;;;5091742;28;20679;-56
2023/07/11 11:02:30;;;;;;;6.03;4.18;;;36.40;53.10;;;;;;5091361;28;20376;-57
2023/07/11 11:05:09;;;;;;;6.85;4.38;;;36.30;53.40;;;;;;5091750;28;20208;-57
2023/07/11 11:07:40;;;;;;;6.00;4.47;;;36.30;53.90;;;;;;5090879;28;20208;-57
2023/07/11 11:10:14;;;;;;;9.88;4.57;;;36.20;53.80;;;;;;5091433;28;20204;-57
2023/07/11 11:12:47;;;;;;;5.22;4.28;;;36.20;53.90;;;;;;5090900;28;20227;-57
2023/07/11 11:15:28;;;;;;;5.20;4.28;;;36.20;54.10;;;;;;5091412;28;20200;-58
2023/07/11 11:18:04;;;;;;;4.95;4.03;;;36.40;54.30;;;;;;5091097;28;20215;-57
2023/07/11 11:20:38;;;;;;;6.72;4.18;;;36.50;54.30;;;;;;5091424;28;20739;-56
2023/07/11 11:23:26;;;;;;;5.85;4.38;;;36.60;54.10;;;;;;5091261;28;20231;-57
2023/07/11 11:26:06;;;;;;;6.32;3.97;;;36.70;54.20;;;;;;5091367;28;20208;-57
2023/07/11 11:28:44;;;;;;;9.55;4.60;;;36.80;54.00;;;;;;5094366;28;20208;-57
2023/07/11 11:31:21;;;;;;;6.60;4.22;;;36.60;54.10;;;;;;5095150;28;20671;-60
2023/07/11 11:34:01;;;;;;;5.60;4.30;;;36.40;54.40;;;;;;5095026;28;20545;-58
2023/07/11 11:36:31;;;;;;;6.90;4.28;;;36.40;54.60;;;;;;5094870;28;20243;-56
2023/07/11 11:39:13;;;;;;;6.60;4.30;;;36.60;54.40;;;;;;5095103;28;20237;-59
2023/07/11 11:41:44;;;;;;;5.05;4.50;;;36.80;54.20;;;;;;5095116;28;20247;-58
2023/07/11 11:44:16;;;;;;;5.80;4.05;;;37.20;53.50;;;;;;5095196;28;20226;-57
2023/07/11 11:46:45;;;;;;;7.63;4.15;;;37.50;52.90;;;;;;5094639;28;20205;-59
2023/07/11 11:49:12;;;;;;;7.50;4.18;;;37.70;52.50;;;;;;5095191;28;20231;-57
2023/07/11 11:51:41;;;;;;;6.00;4.40;;;37.90;51.80;;;;;;5095150;28;20247;-57
2023/07/11 11:54:18;;;;;;;6.45;4.30;;;38.00;51.50;;;;;;5094716;28;20255;-58
2023/07/11 11:56:48;;;;;;;7.60;4.18;;;38.30;52.00;;;;;;5095412;28;20212;-57
2023/07/11 11:59:20;;;;;;;9.13;4.65;;;38.30;51.40;;;;;;5094880;28;20591;-57
2023/07/11 12:02:10;;;;;;;9.15;4.47;;;38.00;51.60;;;;;;5094425;28;20232;-58
2023/07/11 12:05:02;;;;;;;9.02;4.72;;;37.60;52.10;;;;;;5094416;28;20295;-58
2023/07/11 12:07:32;;;;;;;7.10;4.40;;;37.50;52.60;;;;;;5094838;28;20212;-56
2023/07/11 12:10:23;;;;;;;9.02;4.30;;;37.30;52.40;;;;;;5094283;28;20208;-58
2023/07/11 12:12:56;;;;;;;19.20;6.22;;;37.30;52.60;;;;;;5093392;28;20228;-58
2023/07/11 12:15:31;;;;;;;5.72;4.07;;;37.50;52.50;;;;;;5094153;28;20219;-59
2023/07/11 12:18:24;;;;;;;8.98;4.57;;;37.70;51.90;;;;;;5093988;28;20208;-57
2023/07/11 12:21:07;;;;;;;8.02;4.45;;;38.00;51.60;;;;;;5093678;28;20694;-58
2023/07/11 12:23:34;;;;;;;5.93;4.30;;;38.20;51.40;;;;;;5093259;28;20240;-59
2023/07/11 12:26:12;;;;;;;5.28;4.30;;;38.20;51.60;;;;;;5093685;28;20216;-58
2023/07/11 12:28:41;;;;;;;6.55;4.57;;;37.90;52.20;;;;;;5093916;28;20211;-57
2023/07/11 12:31:18;;;;;;;4.97;4.28;;;37.70;52.60;;;;;;5093934;28;20583;-57
2023/07/11 12:33:55;;;;;;;6.00;4.55;;;37.60;52.60;;;;;;5093907;28;20695;-56
2023/07/11 12:36:39;;;;;;;6.68;4.65;;;37.40;52.50;;;;;;5093734;28;20208;-57
2023/07/11 12:39:32;;;;;;;5.53;4.28;;;37.30;52.80;;;;;;5093285;28;20625;-57
2023/07/11 12:42:10;;;;;;;7.78;4.60;;;37.10;53.40;;;;;;5093405;28;20580;-56
2023/07/11 12:44:39;;;;;;;8.35;4.60;;;37.10;53.50;;;;;;5093413;28;20200;-57
2023/07/11 12:47:13;;;;;;;8.60;4.40;;;37.20;53.10;;;;;;5093794;28;20332;-58
2023/07/11 12:49:42;;;;;;;6.57;4.55;;;37.20;52.80;;;;;;5093654;28;20613;-58
2023/07/11 12:52:12;;;;;;;5.30;4.53;;;37.30;52.90;;;;;;5093378;28;20231;-57
2023/07/11 12:54:39;;;;;;;8.68;4.63;;;37.40;52.60;;;;;;5093150;28;20228;-58
2023/07/11 12:57:13;;;;;;;5.20;4.70;;;37.60;52.30;;;;;;5093294;28;20240;-59